Time;durP1;ratioP1;P1;durP2;ratioP2;P2;SDS_P1;SDS_P2;PMS_P1;PMS_P2;Temp;Humidity;BMP_temperature;BMP_pressure;BME280_temperature;BME280_humidity;BME280_pressure;Samples;Min_cycle;Max_cycle;Signal;HPM_P1;HPM_P2
2024/01/18 00:01:10;;;;;;;26.50;13.95;;;-1.00;99.90;;;0.39;100.00;98289.81;4963338;28;20340;-80
2024/01/18 00:03:39;;;;;;;29.00;14.90;;;-1.00;99.90;;;0.28;100.00;98298.50;4941217;28;20054;-80
2024/01/18 00:06:08;;;;;;;30.77;14.95;;;-1.00;99.90;;;0.16;100.00;98305.50;4936125;29;20043;-80
2024/01/18 00:08:34;;;;;;;28.38;14.32;;;-1.00;99.90;;;0.18;100.00;98298.91;4956562;28;20111;-79
2024/01/18 00:11:01;;;;;;;25.52;12.82;;;-1.00;99.90;;;-0.03;100.00;98294.56;4942943;29;20481;-80
2024/01/18 00:13:27;;;;;;;27.42;13.90;;;-1.00;99.90;;;0.33;100.00;98303.22;4947668;29;20110;-79
2024/01/18 00:15:52;;;;;;;30.48;15.55;;;-1.00;99.90;;;0.64;100.00;98310.63;4962845;28;20031;-80
2024/01/18 00:18:18;;;;;;;29.02;13.90;;;-1.00;99.90;;;0.61;100.00;98318.25;4948845;28;20411;-80
2024/01/18 00:20:44;;;;;;;27.35;13.82;;;-1.00;99.90;;;0.79;100.00;98313.06;4957267;28;20031;-80
2024/01/18 00:23:10;;;;;;;28.17;14.75;;;-0.90;99.90;;;0.71;100.00;98319.47;4946956;28;20448;-80
2024/01/18 00:25:36;;;;;;;27.08;14.43;;;-0.90;99.90;;;0.79;100.00;98321.13;4961736;28;20054;-79
2024/01/18 00:28:02;;;;;;;23.85;14.52;;;-0.90;99.90;;;0.64;100.00;98318.66;4936302;29;20038;-79
2024/01/18 00:30:28;;;;;;;29.33;14.80;;;-0.90;99.90;;;0.71;100.00;98318.66;4943163;28;20047;-79
2024/01/18 00:32:54;;;;;;;29.35;14.77;;;-0.90;99.90;;;0.22;100.00;98331.50;4946577;28;20130;-79
2024/01/18 00:35:20;;;;;;;28.63;14.43;;;-0.90;99.90;;;0.19;100.00;98331.91;4943631;29;20040;-80
2024/01/18 00:37:46;;;;;;;25.90;14.80;;;-0.90;99.90;;;0.46;100.00;98339.94;4964153;28;20051;-80
2024/01/18 00:40:15;;;;;;;28.13;14.77;;;-0.90;99.90;;;0.12;100.00;98340.78;4941800;28;20079;-78
2024/01/18 00:42:40;;;;;;;28.55;14.98;;;-0.90;99.90;;;0.07;100.00;98324.50;4942230;28;20487;-79
2024/01/18 00:45:07;;;;;;;23.30;13.02;;;-0.90;99.90;;;-0.02;100.00;98331.06;4935507;29;20040;-79
2024/01/18 00:47:33;;;;;;;28.33;15.02;;;-0.90;99.90;;;0.62;100.00;98350.25;4936571;29;20042;-79
2024/01/18 00:49:59;;;;;;;27.25;15.20;;;-0.90;99.90;;;0.28;100.00;98352.94;4960059;28;20043;-79
2024/01/18 00:52:25;;;;;;;28.88;15.60;;;-0.80;99.90;;;0.09;100.00;98348.41;4962613;28;20055;-79
2024/01/18 00:54:50;;;;;;;29.85;14.18;;;-0.80;99.90;;;0.03;100.00;98339.34;4943064;28;20044;-79
2024/01/18 00:57:16;;;;;;;28.83;15.07;;;-0.80;99.90;;;-0.21;100.00;98330.00;4936405;29;20067;-80
2024/01/18 00:59:42;;;;;;;26.75;14.70;;;-0.80;99.90;;;-0.04;100.00;98328.59;4941174;29;20501;-78
2024/01/18 01:02:08;;;;;;;26.45;13.95;;;-0.90;99.90;;;-0.02;100.00;98355.19;4946744;29;20074;-79
2024/01/18 01:04:34;;;;;;;26.23;14.52;;;-0.80;99.90;;;0.69;100.00;98361.81;4948045;28;20045;-78
2024/01/18 01:07:00;;;;;;;32.08;14.50;;;-0.90;99.90;;;0.22;100.00;98359.16;4948084;28;20493;-79
2024/01/18 01:09:25;;;;;;;23.85;13.55;;;-0.80;99.90;;;0.12;100.00;98364.06;4936366;28;20036;-79
2024/01/18 01:11:52;;;;;;;24.95;14.38;;;-0.90;99.90;;;0.31;100.00;98373.19;4938417;29;20073;-79
2024/01/18 01:14:18;;;;;;;25.92;14.63;;;-0.90;99.90;;;0.25;100.00;98380.19;4945490;28;20050;-79
2024/01/18 01:16:44;;;;;;;25.63;14.85;;;-0.90;99.90;;;0.25;100.00;98368.63;4949607;28;20118;-78
2024/01/18 01:19:09;;;;;;;27.30;14.88;;;-0.90;99.90;;;0.01;100.00;98368.22;4945910;28;20484;-79
2024/01/18 01:21:36;;;;;;;25.88;14.70;;;-0.90;99.90;;;0.22;100.00;98377.09;4946420;29;20035;-79
2024/01/18 01:24:03;;;;;;;29.70;15.07;;;-0.90;99.90;;;0.58;100.00;98381.22;4949295;28;20058;-79
2024/01/18 01:26:29;;;;;;;26.13;13.82;;;-0.90;99.90;;;0.27;100.00;98380.00;4950235;28;20864;-79
2024/01/18 01:28:54;;;;;;;25.50;15.18;;;-0.90;99.90;;;0.01;100.00;98376.25;4942461;29;20114;-79
2024/01/18 01:31:20;;;;;;;24.70;14.32;;;-0.90;99.90;;;-0.06;100.00;98386.13;4948752;29;20027;-79
2024/01/18 01:33:47;;;;;;;27.65;14.88;;;-0.90;99.90;;;0.23;100.00;98392.16;4942254;29;20391;-79
2024/01/18 01:36:13;;;;;;;27.73;14.75;;;-0.90;99.90;;;0.45;100.00;98410.72;4949437;28;20031;-79
2024/01/18 01:38:39;;;;;;;26.85;15.65;;;-0.90;99.90;;;0.74;100.00;98422.09;4962225;28;20119;-79
2024/01/18 01:41:05;;;;;;;24.70;14.30;;;-0.90;99.90;;;0.65;100.00;98414.25;4953661;28;20075;-79
2024/01/18 01:43:31;;;;;;;28.25;15.95;;;-0.90;99.90;;;0.77;100.00;98422.50;4947064;29;20051;-79
2024/01/18 01:45:57;;;;;;;28.65;14.95;;;-0.90;99.90;;;0.81;100.00;98422.94;4942065;29;20127;-79
2024/01/18 01:48:23;;;;;;;29.00;15.85;;;-0.90;99.90;;;0.80;100.00;98414.03;4956906;28;20044;-78
2024/01/18 01:50:51;;;;;;;28.23;15.30;;;-0.90;99.90;;;0.72;100.00;98427.69;4954216;28;20050;-78
2024/01/18 01:53:20;;;;;;;30.20;16.35;;;-0.90;99.90;;;0.95;100.00;98429.91;4946247;28;20570;-79
2024/01/18 01:55:46;;;;;;;25.65;14.98;;;-0.90;99.90;;;1.03;100.00;98434.25;4961976;28;20090;-79
2024/01/18 01:58:15;;;;;;;31.08;14.82;;;-0.90;99.90;;;1.13;100.00;98428.47;4941815;28;20036;-79
2024/01/18 02:00:44;;;;;;;28.75;15.38;;;-0.90;99.90;;;0.95;100.00;98431.78;4955664;28;20032;-78
2024/01/18 02:03:10;;;;;;;26.10;15.23;;;-0.90;99.90;;;0.94;100.00;98435.50;4951888;28;20090;-79
2024/01/18 02:05:36;;;;;;;31.30;15.63;;;-0.90;99.90;;;1.04;100.00;98430.53;4965327;28;20062;-80
2024/01/18 02:08:02;;;;;;;26.35;15.02;;;-0.90;99.90;;;1.00;100.00;98434.69;4947359;28;20039;-79
2024/01/18 02:10:28;;;;;;;32.03;15.13;;;-1.00;99.90;;;0.98;100.00;98436.75;4948865;29;20050;-78
2024/01/18 02:12:56;;;;;;;26.83;16.05;;;-1.00;99.90;;;0.96;100.00;98436.94;4949868;28;20035;-78
2024/01/18 02:15:22;;;;;;;;;;;-1.00;99.90;;;1.01;100.00;98436.31;4947668;28;20036;-78
2024/01/18 02:17:48;;;;;;;26.77;14.38;;;-1.00;99.90;;;1.00;100.00;98446.22;4951173;29;19925;-78
2024/01/18 02:20:14;;;;;;;28.15;16.17;;;-1.10;99.90;;;0.95;100.00;98446.03;4948553;28;20055;-77
2024/01/18 02:22:44;;;;;;;26.92;15.75;;;-1.00;99.90;;;1.03;100.00;98444.16;4956581;28;20035;-78
2024/01/18 02:25:28;;;;;;;29.02;14.80;;;-1.10;99.90;;;1.02;100.00;98447.88;4944574;28;20035;-77
2024/01/18 02:27:55;;;;;;;28.98;16.35;;;-1.10;99.90;;;0.93;100.00;98466.91;4944901;28;20419;-78
2024/01/18 02:30:21;;;;;;;28.02;16.13;;;-1.00;99.90;;;1.01;100.00;98473.91;4956182;28;20027;-78
2024/01/18 02:32:47;;;;;;;29.77;16.95;;;-1.10;99.90;;;0.99;100.00;98471.44;4928289;29;20083;-78
2024/01/18 02:35:14;;;;;;;26.08;15.48;;;-1.00;99.90;;;1.07;100.00;98467.72;4957246;28;20039;-78
2024/01/18 02:37:40;;;;;;;25.42;15.95;;;-1.00;99.90;;;1.05;100.00;98469.78;4945537;29;20753;-78
2024/01/18 02:40:07;;;;;;;27.30;15.95;;;-1.00;99.90;;;0.86;100.00;98471.44;4943944;29;20149;-78
2024/01/18 02:42:33;;;;;;;31.25;16.40;;;-1.00;99.90;;;0.92;100.00;98480.50;4952642;28;20480;-77
2024/01/18 02:44:59;;;;;;;29.08;16.60;;;-1.00;99.90;;;0.86;100.00;98472.25;4942079;29;20047;-78
2024/01/18 02:47:25;;;;;;;29.92;16.92;;;-1.00;99.90;;;0.85;100.00;98475.97;4945188;29;20394;-78
2024/01/18 02:49:51;;;;;;;29.48;16.45;;;-1.10;99.90;;;0.74;100.00;98479.28;4957262;28;20068;-78
2024/01/18 02:52:18;;;;;;;29.30;16.75;;;-1.00;99.90;;;0.79;100.00;98465.22;4958734;28;20039;-78
2024/01/18 02:54:44;;;;;;;26.13;15.25;;;-1.10;99.90;;;0.82;100.00;98464.84;4945871;29;20039;-78
2024/01/18 02:57:10;;;;;;;29.17;15.95;;;-1.10;99.90;;;0.89;100.00;98473.72;4947292;28;20043;-78
2024/01/18 02:59:35;;;;;;;25.73;16.27;;;-1.20;99.90;;;0.88;100.00;98479.28;4943550;29;20118;-78
2024/01/18 03:02:01;;;;;;;27.83;16.63;;;-1.20;99.90;;;0.73;100.00;98479.50;4956783;28;20047;-78
2024/01/18 03:04:27;;;;;;;30.42;16.38;;;-1.20;99.90;;;0.84;100.00;98484.25;4938006;29;20519;-80
2024/01/18 03:06:53;;;;;;;31.40;16.80;;;-1.20;99.90;;;0.79;100.00;98462.56;4948193;29;20634;-78
2024/01/18 03:09:18;;;;;;;32.65;17.10;;;-1.20;99.90;;;0.81;100.00;98460.50;4941615;28;20844;-78
2024/01/18 03:11:44;;;;;;;31.80;17.02;;;-1.20;99.90;;;0.67;100.00;98471.22;4952243;28;20127;-78
2024/01/18 03:14:11;;;;;;;29.88;16.63;;;-1.30;99.90;;;0.65;100.00;98470.63;4958543;28;20499;-78
2024/01/18 03:16:42;;;;;;;31.60;16.75;;;-1.30;99.90;;;0.65;100.00;98464.41;4957116;28;20055;-77
2024/01/18 03:19:10;;;;;;;29.67;17.27;;;-1.30;99.90;;;0.75;100.00;98475.56;4956061;28;20075;-78
2024/01/18 03:21:36;;;;;;;32.42;17.40;;;-1.30;99.90;;;0.71;100.00;98467.09;4951663;28;20054;-78
2024/01/18 03:24:02;;;;;;;31.80;17.17;;;-1.30;99.90;;;0.71;100.00;98475.16;4937264;29;20040;-78
2024/01/18 03:26:27;;;;;;;27.98;16.58;;;-1.40;99.90;;;0.45;100.00;98475.97;4937165;29;20043;-78
2024/01/18 03:28:53;;;;;;;28.55;16.08;;;-1.40;99.90;;;0.36;100.00;98499.47;4941628;28;20032;-77
2024/01/18 03:31:19;;;;;;;29.77;16.70;;;-1.40;99.90;;;0.47;100.00;98495.38;4939038;29;20399;-77
2024/01/18 03:33:44;;;;;;;25.55;16.13;;;-1.40;99.90;;;0.36;100.00;98506.69;4942304;29;20036;-78
2024/01/18 03:36:10;;;;;;;30.98;16.85;;;-1.40;99.90;;;0.57;100.00;98503.03;4946821;29;20139;-78
2024/01/18 03:38:36;;;;;;;32.30;17.52;;;-1.40;99.90;;;0.42;100.00;98487.13;4945686;28;20163;-78
2024/01/18 03:41:03;;;;;;;28.50;16.20;;;-1.50;99.90;;;0.58;100.00;98493.94;4946184;28;20039;-78
2024/01/18 03:43:28;;;;;;;34.13;18.08;;;-1.50;99.90;;;0.50;100.00;98488.75;4946891;29;20082;-78
2024/01/18 03:45:54;;;;;;;33.75;18.65;;;-1.50;99.90;;;0.33;100.00;98499.03;4951523;28;20036;-77
2024/01/18 03:48:20;;;;;;;32.47;18.52;;;-1.50;99.90;;;0.43;100.00;98508.34;4940693;29;20487;-77
2024/01/18 03:50:46;;;;;;;31.70;18.08;;;-1.60;99.90;;;0.33;100.00;98512.47;4955775;28;20039;-77
2024/01/18 03:53:12;;;;;;;32.88;18.10;;;-1.60;99.90;;;0.42;100.00;98513.94;4944047;28;20059;-78
2024/01/18 03:55:37;;;;;;;30.42;16.85;;;-1.60;99.90;;;0.44;100.00;98503.84;4940737;29;20142;-77
2024/01/18 03:58:04;;;;;;;28.75;17.63;;;-1.60;99.90;;;0.45;100.00;98501.97;4936268;28;20496;-78
2024/01/18 04:00:29;;;;;;;31.88;18.10;;;-1.60;99.90;;;0.43;100.00;98489.56;4946654;29;20356;-77
2024/01/18 04:02:55;;;;;;;32.15;18.42;;;-1.70;99.90;;;0.40;100.00;98492.66;4938474;28;20095;-77
2024/01/18 04:05:21;;;;;;;31.45;18.35;;;-1.60;99.90;;;0.36;100.00;98499.47;4965962;28;20036;-77
2024/01/18 04:07:46;;;;;;;33.95;19.67;;;-1.70;99.90;;;0.39;100.00;98499.06;4959349;28;20039;-77
2024/01/18 04:10:12;;;;;;;32.70;18.65;;;-1.70;99.90;;;0.30;100.00;98511.03;4936453;28;20510;-78
2024/01/18 04:12:38;;;;;;;33.92;18.83;;;-1.60;99.90;;;0.43;100.00;98519.09;4941953;29;20103;-78
2024/01/18 04:15:06;;;;;;;32.03;18.50;;;-1.60;99.90;;;0.50;100.00;98520.94;4947043;28;20097;-78
2024/01/18 04:17:31;;;;;;;37.15;20.13;;;-1.60;99.90;;;0.53;100.00;98513.34;4943306;28;20039;-78
2024/01/18 04:19:57;;;;;;;35.60;19.38;;;-1.60;99.90;;;0.54;100.00;98523.03;4945111;28;20040;-78
2024/01/18 04:22:23;;;;;;;35.92;19.85;;;-1.50;99.90;;;0.49;100.00;98508.56;4945800;28;20046;-78
2024/01/18 04:24:50;;;;;;;33.95;19.23;;;-1.50;99.90;;;0.49;100.00;98511.25;4940779;29;20036;-77
2024/01/18 04:27:16;;;;;;;34.42;19.63;;;-1.50;99.90;;;0.53;100.00;98512.50;4935011;29;20054;-77
2024/01/18 04:29:42;;;;;;;34.83;19.67;;;-1.50;99.90;;;0.55;100.00;98515.81;4940847;29;20134;-77
2024/01/18 04:32:08;;;;;;;36.00;19.50;;;-1.50;99.90;;;0.47;100.00;98503.41;4961243;28;20043;-77
2024/01/18 04:34:33;;;;;;;35.67;19.77;;;-1.50;99.90;;;0.53;100.00;98521.38;4939836;28;20054;-76
2024/01/18 04:37:00;;;;;;;34.25;19.40;;;-1.50;99.90;;;0.49;100.00;98528.19;4946722;28;20023;-76
2024/01/18 04:39:27;;;;;;;32.97;19.70;;;-1.50;99.90;;;0.56;100.00;98517.47;4941845;28;20035;-76
2024/01/18 04:41:52;;;;;;;38.22;21.48;;;-1.50;99.90;;;0.61;100.00;98516.84;4965702;28;20047;-76
2024/01/18 04:44:18;;;;;;;33.58;19.55;;;-1.50;99.90;;;0.68;100.00;98512.34;4935858;29;20044;-77
2024/01/18 04:46:44;;;;;;;41.33;20.85;;;-1.50;99.90;;;0.62;100.00;98505.91;4940154;28;20095;-76
2024/01/18 04:49:10;;;;;;;40.78;20.70;;;-1.50;99.90;;;0.33;100.00;98513.31;4940865;29;20044;-77
2024/01/18 04:51:35;;;;;;;34.85;20.00;;;-1.50;99.90;;;0.39;100.00;98498.22;4945782;28;20095;-76
2024/01/18 04:54:01;;;;;;;36.97;19.88;;;-1.50;99.90;;;0.52;100.00;98511.69;4945949;28;20054;-77
2024/01/18 04:56:27;;;;;;;33.78;19.00;;;-1.40;99.90;;;0.63;100.00;98512.09;4941113;29;20043;-76
2024/01/18 04:58:53;;;;;;;36.25;20.17;;;-1.40;99.90;;;0.67;100.00;98527.59;4940792;28;20036;-77
2024/01/18 05:01:19;;;;;;;36.03;19.65;;;-1.50;99.90;;;0.64;100.00;98527.16;4941019;29;20098;-78
2024/01/18 05:03:47;;;;;;;34.00;20.08;;;-1.50;99.90;;;0.65;100.00;98529.66;4957354;28;20241;-77
2024/01/18 05:06:13;;;;;;;32.53;19.98;;;-1.50;99.90;;;0.62;100.00;98540.81;4939782;28;20039;-77
2024/01/18 05:08:39;;;;;;;34.05;20.15;;;-1.50;99.90;;;0.49;100.00;98548.81;4939529;29;20179;-77
2024/01/18 05:11:04;;;;;;;39.97;21.38;;;-1.50;99.90;;;0.56;100.00;98542.44;4936367;29;20035;-77
2024/01/18 05:13:30;;;;;;;32.47;20.33;;;-1.50;99.90;;;0.44;100.00;98533.34;4935709;29;20097;-77
2024/01/18 05:15:59;;;;;;;38.95;21.17;;;-1.60;99.90;;;0.46;100.00;98551.91;4933876;29;20046;-77
2024/01/18 05:18:24;;;;;;;36.78;21.13;;;-1.60;99.90;;;0.50;100.00;98553.16;4935419;29;20035;-77
2024/01/18 05:20:50;;;;;;;36.85;20.88;;;-1.60;99.90;;;0.39;100.00;98544.69;4935402;29;20476;-77
2024/01/18 05:23:16;;;;;;;34.47;20.80;;;-1.60;99.90;;;0.38;100.00;98553.75;4949632;28;20076;-77
2024/01/18 05:25:42;;;;;;;37.35;21.95;;;-1.60;99.90;;;0.37;100.00;98544.06;4942638;29;20064;-77
2024/01/18 05:28:07;;;;;;;38.60;21.98;;;-1.60;99.90;;;0.32;100.00;98546.53;4945945;28;20479;-77
2024/01/18 05:30:33;;;;;;;34.33;20.65;;;-1.60;99.90;;;0.27;100.00;98557.03;4950995;28;20046;-77
2024/01/18 05:32:59;;;;;;;36.90;21.35;;;-1.60;99.90;;;0.22;100.00;98548.75;4947798;28;20032;-77
2024/01/18 05:35:25;;;;;;;36.40;21.45;;;-1.60;99.90;;;0.27;100.00;98570.44;4940981;29;20110;-77
2024/01/18 05:37:50;;;;;;;39.08;22.15;;;-1.70;99.90;;;0.24;100.00;98573.50;4947811;28;20031;-77
2024/01/18 05:40:21;;;;;;;38.05;21.92;;;-1.60;99.90;;;0.34;100.00;98578.50;4959822;28;20138;-77
2024/01/18 05:42:46;;;;;;;36.22;21.50;;;-1.60;99.90;;;0.26;100.00;98580.34;4937433;28;20032;-77
2024/01/18 05:45:12;;;;;;;37.92;22.10;;;-1.70;99.90;;;0.19;100.00;98582.16;4944172;29;20404;-77
2024/01/18 05:47:39;;;;;;;43.25;23.77;;;-1.80;99.90;;;0.18;100.00;98571.63;4949737;28;20047;-77
2024/01/18 05:50:06;;;;;;;35.63;21.13;;;-1.80;99.90;;;0.19;100.00;98574.13;4943052;28;20116;-77
2024/01/18 05:52:32;;;;;;;38.47;22.58;;;-1.90;99.90;;;-0.21;100.00;98588.16;4937540;29;20118;-77
2024/01/18 05:54:58;;;;;;;41.85;22.98;;;-1.80;99.90;;;0.02;100.00;98587.03;4946864;29;20057;-77
2024/01/18 05:57:24;;;;;;;45.22;23.48;;;-1.90;99.90;;;-0.02;100.00;98583.06;4945206;28;20506;-77
2024/01/18 05:59:51;;;;;;;38.22;21.27;;;-2.00;99.90;;;-0.03;100.00;98600.19;4948970;28;20039;-77
2024/01/18 06:02:16;;;;;;;41.95;22.88;;;-2.00;99.90;;;-0.06;100.00;98593.38;4940527;29;20074;-77
2024/01/18 06:04:42;;;;;;;41.83;22.85;;;-2.10;99.90;;;-0.11;100.00;98589.63;4945911;28;20090;-79
2024/01/18 06:07:08;;;;;;;44.85;22.90;;;-2.10;99.90;;;-0.12;100.00;98596.03;4946775;29;20385;-82
2024/01/18 06:09:34;;;;;;;41.55;22.33;;;-2.10;99.90;;;-0.11;100.00;98611.09;4950178;28;20140;-81
2024/01/18 06:11:59;;;;;;;44.47;22.92;;;-2.20;99.90;;;-0.11;100.00;98600.38;4950710;28;20039;-82
2024/01/18 06:14:25;;;;;;;45.90;23.48;;;-2.30;99.90;;;-0.16;100.00;98598.25;4945445;29;20392;-83
2024/01/18 06:16:51;;;;;;;40.33;22.45;;;-2.30;99.90;;;-0.20;100.00;98607.72;4939745;29;20040;-83
2024/01/18 06:19:17;;;;;;;42.28;22.73;;;-2.20;99.90;;;-0.24;100.00;98611.84;4960561;28;20052;-81
2024/01/18 06:21:42;;;;;;;43.60;22.60;;;-2.30;99.90;;;-0.22;100.00;98620.50;4960669;28;20435;-81
2024/01/18 06:24:08;;;;;;;51.40;25.00;;;-2.30;99.90;;;-0.55;100.00;98623.78;4955051;28;20380;-81
2024/01/18 06:26:34;;;;;;;44.35;23.73;;;-2.30;99.90;;;-0.37;100.00;98617.94;4948329;29;20043;-81
2024/01/18 06:29:00;;;;;;;56.72;24.58;;;-2.30;99.90;;;-0.35;100.00;98626.59;4940230;29;20057;-81
2024/01/18 06:31:27;;;;;;;48.03;23.83;;;-2.30;99.90;;;-0.37;100.00;98617.94;4953748;28;20042;-81
2024/01/18 06:33:58;;;;;;;52.05;24.67;;;-2.40;99.90;;;-0.32;100.00;98626.22;4953270;28;20032;-80
2024/01/18 06:36:24;;;;;;;48.85;23.80;;;-2.40;99.90;;;-0.82;100.00;98632.41;4953248;28;20043;-80
2024/01/18 06:38:49;;;;;;;45.20;24.88;;;-2.30;99.90;;;-0.96;100.00;98636.81;4938686;29;20052;-81
2024/01/18 06:41:16;;;;;;;45.00;26.05;;;-2.20;99.90;;;-0.87;100.00;98629.47;4943265;29;20105;-80
2024/01/18 06:43:42;;;;;;;45.08;25.42;;;-2.10;99.90;;;-0.78;100.00;98635.53;4948056;28;20130;-81
2024/01/18 06:46:17;;;;;;;51.47;25.33;;;-2.10;99.90;;;-0.82;100.00;98639.63;4943395;29;20495;-79
2024/01/18 06:48:50;;;;;;;47.78;28.08;;;-2.10;99.90;;;-0.98;100.00;98641.53;4944201;28;20432;-80
2024/01/18 06:51:16;;;;;;;51.75;27.70;;;-2.10;99.90;;;-1.00;100.00;98645.44;4937115;29;20047;-79
2024/01/18 06:53:43;;;;;;;52.63;26.45;;;-2.10;99.90;;;-0.78;100.00;98647.09;4962141;28;20439;-80
2024/01/18 06:56:13;;;;;;;53.38;29.10;;;-2.00;99.90;;;-0.87;100.00;98645.53;4947840;28;20066;-80
2024/01/18 06:58:39;;;;;;;47.85;27.42;;;-2.00;99.90;;;-0.86;100.00;98657.91;4954405;29;20050;-80
2024/01/18 07:01:06;;;;;;;55.72;29.98;;;-2.00;99.90;;;-1.05;100.00;98676.28;4941851;28;20047;-80
2024/01/18 07:03:35;;;;;;;55.00;28.70;;;-2.00;99.90;;;-0.72;100.00;98672.25;4941753;29;20132;-83
2024/01/18 07:06:04;;;;;;;50.80;27.55;;;-2.00;99.90;;;-0.78;100.00;98667.66;4965132;28;20032;-80
2024/01/18 07:08:30;;;;;;;51.33;27.75;;;-2.00;99.90;;;-0.85;100.00;98631.97;4958194;28;20139;-80
2024/01/18 07:10:57;;;;;;;51.13;27.58;;;-2.10;99.90;;;-0.74;100.00;98679.66;4948967;29;20118;-81
2024/01/18 07:13:23;;;;;;;51.72;28.50;;;-2.20;99.90;;;-1.11;100.00;98669.00;4941478;28;20046;-81
2024/01/18 07:15:49;;;;;;;53.42;28.33;;;-2.10;99.90;;;-1.12;100.00;98691.41;4944465;28;20047;-81
2024/01/18 07:18:14;;;;;;;56.53;29.73;;;-2.00;99.90;;;-1.08;100.00;98692.69;4954193;28;20192;-81
2024/01/18 07:20:40;;;;;;;52.03;28.45;;;-2.00;99.90;;;-1.01;100.00;98692.78;4948023;28;20043;-76
2024/01/18 07:23:06;;;;;;;53.72;29.38;;;-2.00;99.90;;;-0.82;100.00;98685.16;4943242;28;20043;-78
2024/01/18 07:25:32;;;;;;;56.05;28.70;;;-1.90;99.90;;;-1.02;100.00;98686.59;4961456;28;20039;-82
2024/01/18 07:27:58;;;;;;;52.55;28.65;;;-1.90;99.90;;;-0.90;100.00;98688.78;4944552;29;20130;-80
2024/01/18 07:30:24;;;;;;;53.10;29.00;;;-1.90;99.90;;;-1.17;100.00;98672.44;4939252;29;20063;-81
2024/01/18 07:32:49;;;;;;;48.72;27.55;;;-2.00;99.90;;;-0.82;100.00;98679.78;4951408;28;20118;-80
2024/01/18 07:35:15;;;;;;;54.35;29.52;;;-2.10;99.90;;;-1.23;100.00;98690.06;4942288;28;20058;-79
2024/01/18 07:37:42;;;;;;;54.33;28.70;;;-2.10;99.90;;;-0.79;100.00;98684.75;4938327;29;20114;-79
2024/01/18 07:40:08;;;;;;;51.80;27.75;;;-2.20;99.90;;;-0.59;100.00;98695.66;4940035;29;20137;-78
2024/01/18 07:42:34;;;;;;;51.72;28.35;;;-2.40;99.90;;;-0.76;100.00;98685.22;4948254;29;20035;-80
2024/01/18 07:45:00;;;;;;;46.38;27.38;;;-2.50;99.90;;;-0.70;100.00;98704.22;4940151;29;20086;-79
2024/01/18 07:47:26;;;;;;;48.90;26.35;;;-2.70;99.90;;;-0.75;100.00;98719.00;4956106;28;20387;-80
2024/01/18 07:49:52;;;;;;;46.65;25.27;;;-2.70;99.90;;;-0.83;100.00;98707.59;4952670;28;20134;-80
2024/01/18 07:52:18;;;;;;;52.28;27.30;;;-2.80;99.90;;;-1.09;100.00;98717.81;4952018;28;20039;-80
2024/01/18 07:54:44;;;;;;;48.50;27.65;;;-2.80;99.90;;;-1.07;100.00;98717.63;4943174;29;20078;-81
2024/01/18 07:57:10;;;;;;;48.83;27.08;;;-2.90;99.90;;;-1.03;100.00;98716.22;4941384;29;20067;-81
2024/01/18 07:59:36;;;;;;;46.60;26.77;;;-2.90;99.90;;;-1.09;100.00;98735.72;4943416;29;20078;-80
2024/01/18 08:02:02;;;;;;;48.05;26.05;;;-3.00;99.90;;;-1.00;100.00;98731.09;4953277;28;20047;-80
2024/01/18 08:04:29;;;;;;;49.75;27.33;;;-3.00;99.90;;;-1.04;100.00;98730.63;4954666;28;20038;-79
2024/01/18 08:06:56;;;;;;;55.60;29.17;;;-3.00;99.90;;;-1.05;100.00;98727.16;4943790;28;20087;-80
2024/01/18 08:09:21;;;;;;;53.58;27.42;;;-3.00;99.90;;;-1.03;100.00;98748.34;4962376;28;20387;-79
2024/01/18 08:11:47;;;;;;;48.20;27.00;;;-3.10;99.90;;;-1.04;100.00;98738.66;4949931;29;20159;-78
2024/01/18 08:14:13;;;;;;;53.45;28.05;;;-3.10;99.90;;;-0.97;100.00;98754.81;4940363;29;20103;-79
2024/01/18 08:16:39;;;;;;;56.05;30.15;;;-3.10;99.90;;;-1.06;100.00;98752.25;4944220;29;20036;-79
2024/01/18 08:19:05;;;;;;;55.58;28.80;;;-3.00;99.90;;;-1.23;100.00;98753.47;4960170;28;20106;-79
2024/01/18 08:21:31;;;;;;;53.28;28.75;;;-3.00;99.90;;;-0.98;100.00;98774.56;4951916;28;20046;-78
2024/01/18 08:23:57;;;;;;;51.47;28.67;;;-3.10;99.90;;;-1.09;100.00;98771.34;4939402;29;20046;-78
2024/01/18 08:26:22;;;;;;;56.85;29.45;;;-3.10;99.90;;;-1.00;100.00;98763.22;4954927;28;20042;-81
2024/01/18 08:28:48;;;;;;;57.53;29.15;;;-3.10;99.90;;;-0.96;100.00;98761.81;4943936;28;20379;-80
2024/01/18 08:31:14;;;;;;;54.08;28.85;;;-3.10;99.90;;;-0.95;100.00;98758.13;4948196;28;20043;-81
2024/01/18 08:33:40;;;;;;;63.60;29.80;;;-3.10;99.90;;;-1.60;100.00;98754.22;4943031;28;20036;-81
2024/01/18 08:36:08;;;;;;;51.20;29.00;;;-3.00;99.90;;;-1.52;100.00;98771.19;4957404;28;20047;-83
2024/01/18 08:38:34;;;;;;;59.80;30.55;;;-3.00;99.90;;;-1.19;100.00;98781.50;4952080;28;20066;-83
2024/01/18 08:41:03;;;;;;;52.38;28.73;;;-2.90;99.90;;;-0.98;100.00;98783.41;4960065;28;20111;-85
2024/01/18 08:43:31;;;;;;;60.70;29.73;;;-3.00;99.90;;;-0.98;100.00;98783.41;4942493;29;20449;-84
2024/01/18 08:45:56;;;;;;;53.00;29.10;;;-3.10;99.90;;;-0.98;100.00;98779.91;4961669;28;20050;-84
2024/01/18 08:48:22;;;;;;;60.90;30.95;;;-3.10;99.90;;;-1.06;100.00;98762.97;4946887;28;20035;-85
2024/01/18 08:50:48;;;;;;;53.55;30.73;;;-3.00;99.90;;;-1.03;100.00;98778.66;4949376;28;20042;-84
2024/01/18 08:53:14;;;;;;;64.45;32.03;;;-3.00;99.90;;;-0.94;100.00;98803.44;4959402;28;20488;-85
2024/01/18 08:55:41;;;;;;;57.25;31.73;;;-2.90;99.90;;;-0.92;100.00;98795.22;4947194;29;20046;-83
2024/01/18 08:58:08;;;;;;;67.47;34.30;;;-2.90;99.90;;;-0.70;100.00;98793.41;4941716;29;20079;-84
2024/01/18 09:00:34;;;;;;;64.28;33.53;;;-2.70;99.90;;;-0.42;100.00;98807.94;4963121;28;20047;-83
2024/01/18 09:03:00;;;;;;;71.10;34.65;;;-2.50;99.90;;;-0.26;100.00;98802.34;4952501;29;20514;-84
2024/01/18 09:05:26;;;;;;;73.00;38.70;;;-2.20;99.90;;;-0.27;100.00;98797.97;4948676;28;20054;-84
2024/01/18 09:07:53;;;;;;;71.97;37.20;;;-2.10;99.90;;;-0.13;100.00;98806.16;4961422;28;20049;-85
2024/01/18 09:10:20;;;;;;;74.90;38.90;;;-1.90;99.90;;;-0.03;100.00;98814.69;4970633;28;20043;-84
2024/01/18 09:12:46;;;;;;;73.75;39.97;;;-1.70;99.90;;;0.11;100.00;98818.31;4967572;28;20055;-87
2024/01/18 09:15:12;;;;;;;72.97;37.45;;;-1.60;99.90;;;0.31;100.00;98807.75;4938200;29;20032;-87
2024/01/18 09:17:40;;;;;;;71.20;37.25;;;-1.40;99.90;;;0.18;100.00;98815.69;4950706;28;20035;-85
2024/01/18 09:20:06;;;;;;;;;;;-1.30;99.90;;;0.27;100.00;98826.09;4952571;28;20027;-83
2024/01/18 09:22:32;;;;;;;65.25;34.92;;;-1.20;99.90;;;0.20;100.00;98817.16;4953160;28;19953;-84
2024/01/18 09:24:58;;;;;;;64.13;33.58;;;-1.00;99.90;;;0.42;100.00;98817.94;4954284;28;20053;-83
2024/01/18 09:27:24;;;;;;;57.80;32.75;;;-1.00;99.90;;;0.65;100.00;98830.28;4965634;28;20069;-84
2024/01/18 09:29:50;;;;;;;53.42;28.98;;;-0.80;99.90;;;0.80;100.00;98837.41;4936074;28;20039;-85
2024/01/18 09:32:16;;;;;;;49.35;29.70;;;-0.70;99.90;;;1.11;100.00;98836.13;4953238;28;20057;-87
2024/01/18 09:34:41;;;;;;;50.17;29.08;;;-0.50;99.90;;;1.12;100.00;98835.91;4962908;28;20039;-85
2024/01/18 09:37:07;;;;;;;52.17;28.92;;;-0.40;99.90;;;1.70;100.00;98856.16;4951881;28;20547;-86
2024/01/18 09:39:33;;;;;;;47.63;27.23;;;-0.20;99.90;;;1.75;100.00;98860.94;4969191;28;20051;-87
2024/01/18 09:42:01;;;;;;;42.22;24.42;;;0.00;99.90;;;1.54;100.00;98857.34;4960933;28;20043;-83
2024/01/18 09:44:30;;;;;;;43.05;23.58;;;0.20;99.90;;;1.54;100.00;98854.66;4955325;28;20067;-83
2024/01/18 09:46:58;;;;;;;36.33;20.77;;;0.40;99.90;;;1.86;100.00;98859.50;4955302;28;20050;-86
2024/01/18 09:49:25;;;;;;;33.53;19.80;;;0.90;99.90;;;1.90;100.00;98863.44;4952065;28;20099;-84
2024/01/18 09:51:51;;;;;;;33.20;19.25;;;1.70;99.90;;;2.27;100.00;98863.09;4968622;28;20058;-83
2024/01/18 09:54:18;;;;;;;29.23;17.52;;;2.50;99.90;;;2.04;100.00;98864.28;4958332;28;20559;-82
2024/01/18 09:56:45;;;;;;;26.63;15.35;;;3.10;99.90;;;2.06;100.00;98872.97;4964556;28;20051;-81
2024/01/18 09:59:16;;;;;;;25.40;12.82;;;3.00;99.90;;;2.35;100.00;98865.56;4953821;28;20395;-79
2024/01/18 10:01:42;;;;;;;20.73;13.75;;;3.00;99.90;;;2.29;100.00;98858.31;4952922;28;20075;-80